Flight Track Log - Related Links

Times and Time Zones

All times are in EDT time to prevent confusion due to time zone crossing. See the KAP444 flight status page for this flight to view local times or setup timezone preferences in your user account.

Time Position Orientation Groundspeed Altitude Reporting Facility
EDT Latitude Longitude Course Direction KTS MPH feet Rate Location/Type
Sun 01:06:06 PM 42.3833 -71.0167 360° North 109 125 600  Level KA90
Sun 01:07:06 PM 42.4167 -71.0167 360° North 115 132 1,200 496 Climbing KA90
Sun 01:08:07 PM 42.4167 -71.0667 270° West 132 152 1,600 492 Climbing KA90
Sun 01:09:08 PM 42.4167 -71.1167 270° West 130 150 2,200 661 Climbing KA90
Sun 01:10:05 PM 42.4333 -71.1667 294° West 133 153 2,900 661 Climbing KA90
Sun 01:11:06 PM 42.4333 -71.2000 270° West 127 146 3,500 545 Climbing KA90
Sun 01:12:06 PM 42.4333 -71.2500 270° West 134 154 4,000 545 Climbing KA90
Sun 01:14:02 PM 42.4556 -71.3539 286° West 143 165 5,100 580 Climbing Boston Center
Sun 01:15:02 PM 42.4625 -71.4100 280° West 143 165 5,700 550 Climbing Boston Center
Sun 01:16:02 PM 42.4692 -71.4633 280° West 143 165 6,200 500 Climbing Boston Center
Sun 01:17:02 PM 42.4758 -71.5167 280° West 143 165 6,700 400 Climbing Boston Center
Sun 01:18:02 PM 42.4825 -71.5703 280° West 143 165 7,000 450 Climbing Boston Center
Sun 01:19:02 PM 42.4892 -71.6264 279° West 143 165 7,600 550 Climbing Boston Center
Sun 01:20:02 PM 42.4958 -71.6797 280° West 143 165 8,100 450 Climbing Boston Center
Sun 01:21:02 PM 42.5025 -71.7333 280° West 143 165 8,500 250 Climbing Boston Center
Sun 01:22:02 PM 42.5089 -71.7922 278° West 149 171 8,600 50 Climbing Boston Center
Sun 01:23:02 PM 42.5178 -71.8597 280° West 174 200 8,600  Level Boston Center
Sun 01:24:02 PM 42.5264 -71.9217 281° West 174 200 8,600  Level Boston Center
Sun 01:25:02 PM 42.5308 -71.9836 276° West 181 208 8,600 -50 Level Boston Center
Sun 01:26:02 PM 42.5414 -72.0483 283° West 181 208 8,500  Descending Boston Center
Sun 01:27:02 PM 42.5500 -72.1131 280° West 181 208 8,600  Climbing Boston Center
Sun 01:28:14 PM 42.5564 -72.1781 278° West 181 208 8,500 -45 Descending Boston Center
Sun 01:29:14 PM 42.5628 -72.2542 277° West 181 208 8,500 50 Level Boston Center
Sun 01:30:14 PM 42.5753 -72.3189 285° West 181 208 8,600 50 Climbing Boston Center
Sun 01:31:14 PM 42.5839 -72.3864 280° West 181 208 8,600 -50 Level Boston Center
Sun 01:32:14 PM 42.5900 -72.4514 277° West 181 208 8,500 -50 Descending Boston Center
Sun 01:33:14 PM 42.5983 -72.5133 280° West 181 208 8,500  Level Boston Center
Sun 01:34:14 PM 42.6067 -72.5783 280° West 181 208 8,500  Level Boston Center
Sun 01:35:14 PM 42.6150 -72.6403 280° West 181 208 8,500 50 Level Boston Center
Sun 01:36:14 PM 42.6211 -72.7025 278° West 181 208 8,600  Climbing Boston Center
Sun 01:37:03 PM 42.6250 -72.7533 276° West 172 198 8,500  Descending Boston Center
Sun 01:38:03 PM 42.6331 -72.8211 279° West 173 199 8,600 46 Climbing Boston Center
Sun 01:39:14 PM 42.6456 -72.8944 283° West 181 208 8,600  Level Boston Center
Sun 01:40:11 PM 42.6472 -72.9567 272° West 172 198 8,600  Level Boston Center
Sun 01:41:14 PM 42.6572 -73.0217 282° West 181 208 8,600  Level Boston Center
Sun 01:41:54 PM 42.6614 -73.0669 277° West 172 198 8,600  Level Boston Center
Sun 01:42:14 PM 42.6633 -73.0867 278° West 181 208 8,600  Level Boston Center
Sun 01:43:01 PM 42.6714 -73.1375 282° West 170 196 8,600 -278 Level Boston Center
Sun 01:44:02 PM 42.6814 -73.2056 281° West 180 207 8,100 -590 Descending Boston Center
Sun 01:45:03 PM 42.6892 -73.2819 278° West 207 238 7,400 -639 Descending Boston Center
Sun 01:46:04 PM 42.6989 -73.3583 280° West 205 236 6,800 -626 Descending Boston Center
Sun 01:46:58 PM 42.7131 -73.4233 287° West 199 229 6,200 -771 Descending Boston Center
Sun 01:47:14 PM 42.7169 -73.4406 287° West 200 230 5,900 -1,068 Descending Boston Center
Sun 01:48:11 PM 42.7331 -73.5114 287° West 197 227 4,900 -950 Descending Boston Center
Sun 01:49:14 PM 42.7428 -73.5625 285° West 200 230 4,000 -1,190 Descending Boston Center
Sun 01:50:12 PM 42.7525 -73.6531 278° West 194 223 2,500 -1,062 Descending Boston Center
Sun 01:51:07 PM 42.7519 -73.7039 269° West 138 159 2,000 -776 Descending Boston Center
Sun 01:52:08 PM 42.7514 -73.7492 269° West 94 108 1,000 -984 Descending Boston Center
Sun 01:54:00 PM 42.7333 -73.8000 299° West  Level FlightAware Approximate
Sun 02:01:00 PM 42.7491 -73.8020 299° West  Level Estimated
Sun 02:02:00 PM 42.7491 -73.8020 299° West  Level Estimated
Sun 02:03:00 PM 42.7491 -73.8020 299° West  Level Estimated
Sun 02:04:00 PM 42.7491 -73.8020 299° West  Level Estimated

Login

Don't have an account? Register now (free) for customized features, flight alerts, and more!